Time;durP1;ratioP1;P1;durP2;ratioP2;P2;SDS_P1;SDS_P2;PMS_P1;PMS_P2;Temp;Humidity;BMP_temperature;BMP_pressure;BME280_temperature;BME280_humidity;BME280_pressure;Samples;Min_cycle;Max_cycle;Signal;HPM_P1;HPM_P2
2023/05/12 00:01:36;;;;;;;0.10;0.10;;;;;;;10.20;100.00;101189.13;5111566;27;20019;-57
2023/05/12 00:04:01;;;;;;;0.10;0.10;;;;;;;10.68;100.00;101187.25;5105725;27;20507;-59
2023/05/12 00:06:27;;;;;;;0.10;0.10;;;;;;;10.83;100.00;101185.50;5105703;27;20034;-58
2023/05/12 00:08:52;;;;;;;0.40;0.10;;;;;;;10.85;100.00;101191.47;5115176;27;20060;-57
2023/05/12 00:11:17;;;;;;;0.80;0.10;;;;;;;10.59;100.00;101196.28;5112448;27;20034;-58
2023/05/12 00:13:43;;;;;;;0.10;0.10;;;;;;;10.61;100.00;101197.75;5123980;27;20042;-56
2023/05/12 00:16:08;;;;;;;0.55;0.10;;;;;;;10.63;100.00;101195.72;5116879;27;20483;-59
2023/05/12 00:18:34;;;;;;;0.47;0.47;;;;;;;10.57;100.00;101195.63;5112839;27;20028;-58
2023/05/12 00:20:59;;;;;;;0.20;0.00;;;;;;;10.43;100.00;101202.47;5116872;27;20395;-60
2023/05/12 00:23:24;;;;;;;0.00;0.00;;;;;;;10.46;100.00;101207.44;5111284;27;20131;-60
2023/05/12 00:25:50;;;;;;;0.30;0.00;;;;;;;10.52;100.00;101208.56;5117005;27;20102;-60
2023/05/12 00:28:16;;;;;;;3.50;0.20;;;;;;;10.45;100.00;101208.41;5115330;27;20126;-59
2023/05/12 00:30:41;;;;;;;0.10;0.10;;;;;;;10.44;100.00;101204.94;5119503;27;20138;-60
2023/05/12 00:33:06;;;;;;;0.20;0.15;;;;;;;10.35;100.00;101202.50;5116853;27;20110;-58
2023/05/12 00:35:32;;;;;;;0.85;0.68;;;;;;;10.36;100.00;101202.31;5113990;27;20035;-58
2023/05/12 00:37:57;;;;;;;0.20;0.20;;;;;;;10.33;100.00;101201.84;5112125;27;20023;-58
2023/05/12 00:40:22;;;;;;;0.10;0.10;;;;;;;10.26;100.00;101209.63;5115335;27;20084;-58
2023/05/12 00:42:48;;;;;;;0.22;0.10;;;;;;;10.30;100.00;101208.31;5113177;27;20051;-60
2023/05/12 00:45:14;;;;;;;0.28;0.10;;;;;;;10.26;100.00;101214.91;5112888;27;20071;-59
2023/05/12 00:47:39;;;;;;;15.27;1.27;;;;;;;10.22;100.00;101211.81;5118210;27;20499;-58
2023/05/12 00:50:05;;;;;;;0.32;0.32;;;;;;;10.13;100.00;101217.28;5117884;27;20020;-56
2023/05/12 00:52:31;;;;;;;1.95;0.28;;;;;;;10.07;100.00;101216.16;5115648;27;20035;-58
2023/05/12 00:54:59;;;;;;;1.40;0.30;;;;;;;10.04;100.00;101219.13;5116219;27;20432;-56
2023/05/12 00:57:24;;;;;;;0.10;0.00;;;;;;;9.02;100.00;101220.47;5117979;27;20031;-57
2023/05/12 00:59:50;;;;;;;0.00;0.00;;;;;;;8.58;100.00;101245.31;5124428;27;20031;-57
2023/05/12 01:02:15;;;;;;;0.13;0.13;;;;;;;9.96;100.00;101224.44;5111749;27;20557;-60
2023/05/12 01:04:41;;;;;;;0.20;0.03;;;;;;;10.16;100.00;101223.06;5116665;27;20418;-58
2023/05/12 01:07:31;;;;;;;0.20;0.10;;;;;;;10.40;100.00;101224.84;5117067;27;20359;-59
2023/05/12 01:09:57;;;;;;;0.10;0.10;;;;;;;10.43;100.00;101224.50;5114600;27;20046;-58
2023/05/12 01:12:23;;;;;;;0.40;0.30;;;;;;;10.51;100.00;101222.81;5119734;27;20114;-60
2023/05/12 01:14:50;;;;;;;0.10;0.10;;;;;;;10.41;100.00;101226.50;5117377;27;20039;-62
2023/05/12 01:17:20;;;;;;;0.05;0.00;;;;;;;10.39;100.00;101232.97;5124444;27;20035;-58
2023/05/12 01:19:48;;;;;;;0.40;0.20;;;;;;;10.38;100.00;101239.28;5124690;27;20095;-61
2023/05/12 01:22:19;;;;;;;0.00;0.00;;;;;;;10.31;100.00;101239.13;5126465;27;20023;-60
2023/05/12 01:24:48;;;;;;;;;;;;;;;10.43;100.00;101232.47;5112760;27;20024;-60
2023/05/12 01:27:22;;;;;;;0.10;0.10;;;;;;;10.44;100.00;101236.75;5124759;27;19969;-61
2023/05/12 01:29:48;;;;;;;0.38;0.20;;;;;;;10.54;100.00;101236.56;5126375;27;20425;-61
2023/05/12 01:32:18;;;;;;;5.05;1.75;;;;;;;10.57;100.00;101243.34;5117795;27;20031;-60
2023/05/12 01:34:43;;;;;;;0.20;0.20;;;;;;;10.61;100.00;101247.28;5113647;27;20028;-60
2023/05/12 01:37:10;;;;;;;2.00;0.45;;;;;;;10.68;100.00;101249.06;5122598;27;20031;-60
2023/05/12 01:39:36;;;;;;;1.40;0.80;;;;;;;10.79;100.00;101250.53;5126865;27;20352;-61
2023/05/12 01:42:03;;;;;;;0.73;0.73;;;;;;;10.90;100.00;101246.66;5120319;27;20113;-60
2023/05/12 01:44:28;;;;;;;2.10;1.40;;;;;;;11.13;100.00;101252.00;5104254;27;20023;-61
2023/05/12 01:46:53;;;;;;;3.60;3.30;;;;;;;11.41;100.00;101241.69;5111669;27;20084;-60
2023/05/12 01:49:19;;;;;;;4.25;3.20;;;;;;;11.72;100.00;101249.56;5124733;27;20035;-62
2023/05/12 01:51:44;;;;;;;7.65;4.72;;;;;;;11.92;100.00;101249.88;5127409;27;20555;-61
2023/05/12 01:54:09;;;;;;;6.03;4.63;;;;;;;12.13;100.00;101259.00;5113656;27;20702;-59
2023/05/12 01:56:35;;;;;;;4.88;4.38;;;;;;;12.30;100.00;101263.13;5116481;27;20418;-61
2023/05/12 01:59:00;;;;;;;7.03;5.15;;;;;;;12.35;100.00;101250.09;5121090;27;20050;-62
2023/05/12 02:01:27;;;;;;;7.72;5.78;;;;;;;12.47;100.00;101257.63;5120652;27;20026;-59
2023/05/12 02:03:54;;;;;;;4.90;4.40;;;;;;;12.57;100.00;101264.31;5120707;27;20034;-61
2023/05/12 02:06:20;;;;;;;7.15;5.00;;;;;;;12.68;100.00;101255.03;5121518;27;20079;-61
2023/05/12 02:08:45;;;;;;;6.70;5.72;;;;;;;12.85;100.00;101256.47;5112059;27;20369;-61
2023/05/12 02:11:10;;;;;;;6.50;5.80;;;;;;;12.92;100.00;101258.38;5121182;27;20103;-60
2023/05/12 02:13:36;;;;;;;6.25;5.53;;;;;;;13.03;100.00;101253.38;5123604;27;20050;-60
2023/05/12 02:16:01;;;;;;;7.25;5.63;;;;;;;13.20;100.00;101255.84;5116725;27;20509;-60
2023/05/12 02:18:27;;;;;;;6.25;5.20;;;;;;;13.29;100.00;101255.56;5117518;27;20031;-62
2023/05/12 02:20:52;;;;;;;5.80;4.72;;;;;;;13.28;100.00;101261.88;5117209;27;20046;-61
2023/05/12 02:23:18;;;;;;;9.68;6.03;;;;;;;13.36;100.00;101265.44;5130396;27;20102;-61
2023/05/12 02:25:43;;;;;;;8.15;5.75;;;;;;;13.31;100.00;101260.69;5120497;27;20443;-58
2023/05/12 02:28:10;;;;;;;12.75;6.07;;;;;;;13.32;100.00;101262.34;5117168;27;20030;-60
2023/05/12 02:30:36;;;;;;;9.18;7.55;;;;;;;13.26;100.00;101266.56;5115237;27;20113;-62
2023/05/12 02:33:04;;;;;;;8.05;5.28;;;;;;;13.33;100.00;101273.81;5124043;27;20029;-61
2023/05/12 02:35:29;;;;;;;8.98;5.53;;;;;;;13.45;100.00;101267.78;5117097;27;20020;-62
2023/05/12 02:37:54;;;;;;;7.88;5.68;;;;;;;13.44;100.00;101263.47;5125873;27;20050;-62
2023/05/12 02:40:19;;;;;;;7.43;5.22;;;;;;;13.46;100.00;101269.44;5120082;27;20042;-62
2023/05/12 02:42:45;;;;;;;6.53;4.97;;;;;;;13.49;100.00;101263.72;5124798;27;20054;-59
2023/05/12 02:45:11;;;;;;;7.60;4.45;;;;;;;13.56;100.00;101268.31;5116823;27;20160;-62
2023/05/12 02:47:36;;;;;;;7.43;6.05;;;;;;;13.62;100.00;101270.19;5120111;27;20032;-60
2023/05/12 02:50:02;;;;;;;6.68;5.38;;;;;;;13.69;100.00;101269.22;5111337;27;20028;-61
2023/05/12 02:52:27;;;;;;;7.25;5.07;;;;;;;13.66;100.00;101269.63;5116116;27;20113;-61
2023/05/12 02:54:53;;;;;;;8.73;6.68;;;;;;;13.74;100.00;101266.00;5125033;27;20364;-61
2023/05/12 02:57:18;;;;;;;6.82;5.78;;;;;;;13.83;100.00;101264.00;5125401;27;20387;-63
2023/05/12 02:59:43;;;;;;;8.65;6.80;;;;;;;13.87;100.00;101271.41;5116747;27;20111;-61
2023/05/12 03:02:08;;;;;;;8.35;6.32;;;;;;;13.87;100.00;101270.59;5122545;27;20487;-62
2023/05/12 03:04:34;;;;;;;8.43;6.43;;;;;;;13.81;100.00;101271.34;5124513;27;20063;-61
2023/05/12 03:06:59;;;;;;;13.85;7.57;;;;;;;13.93;100.00;101277.81;5125242;27;20372;-61
2023/05/12 03:09:24;;;;;;;10.80;7.30;;;;;;;13.97;100.00;101273.75;5114037;27;20588;-58
2023/05/12 03:11:50;;;;;;;14.75;8.20;;;;;;;13.96;100.00;101280.09;5119082;27;20055;-61
2023/05/12 03:14:15;;;;;;;8.88;6.88;;;;;;;13.93;100.00;101291.16;5118483;27;20109;-61
2023/05/12 03:16:40;;;;;;;11.07;7.65;;;;;;;13.93;100.00;101285.81;5120653;27;20059;-62
2023/05/12 03:19:06;;;;;;;9.88;6.68;;;;;;;14.01;100.00;101292.84;5129631;27;20035;-59
2023/05/12 03:21:31;;;;;;;10.13;6.55;;;;;;;13.93;100.00;101297.28;5119927;27;20054;-62
2023/05/12 03:23:56;;;;;;;9.95;7.07;;;;;;;13.84;100.00;101297.66;5119890;27;20148;-62
2023/05/12 03:26:22;;;;;;;8.35;6.18;;;;;;;13.60;100.00;101298.84;5120321;27;20027;-63
2023/05/12 03:28:47;;;;;;;9.90;6.55;;;;;;;13.49;100.00;101301.00;5116368;27;20527;-61
2023/05/12 03:31:12;;;;;;;12.02;7.65;;;;;;;13.41;100.00;101303.00;5123677;27;20074;-62
2023/05/12 03:33:38;;;;;;;11.07;6.88;;;;;;;13.30;100.00;101305.13;5122840;27;20412;-62
2023/05/12 03:36:03;;;;;;;6.82;5.40;;;;;;;13.30;100.00;101302.47;5121736;27;20066;-65
2023/05/12 03:38:29;;;;;;;9.13;5.70;;;;;;;12.22;100.00;101308.44;5115328;27;20023;-62
2023/05/12 03:41:05;;;;;;;8.80;5.90;;;;;;;12.90;100.00;101314.47;5112350;27;20039;-62
2023/05/12 03:43:31;;;;;;;9.07;5.38;;;;;;;13.00;100.00;101314.19;5117836;27;20454;-59
2023/05/12 03:45:57;;;;;;;7.20;6.40;;;;;;;12.92;100.00;101323.09;5117176;27;20071;-64
2023/05/12 03:48:22;;;;;;;10.48;5.75;;;;;;;12.89;100.00;101323.47;5121159;27;20035;-62
2023/05/12 03:50:47;;;;;;;10.32;6.32;;;;;;;12.57;100.00;101329.97;5116917;27;20038;-57
2023/05/12 03:53:13;;;;;;;9.77;5.60;;;;;;;12.47;100.00;101329.44;5119791;27;20073;-60
2023/05/12 03:55:38;;;;;;;12.55;6.18;;;;;;;12.40;100.00;101343.47;5119165;27;20164;-57
2023/05/12 03:58:04;;;;;;;11.02;7.55;;;;;;;12.46;100.00;101341.09;5120794;27;20057;-60
2023/05/12 04:00:29;;;;;;;10.88;7.07;;;;;;;12.42;100.00;101344.13;5112995;27;20099;-60
2023/05/12 04:02:54;;;;;;;12.00;7.72;;;;;;;12.41;100.00;101353.09;5120338;27;20514;-61
2023/05/12 04:05:20;;;;;;;9.80;7.22;;;;;;;11.95;100.00;101350.53;5114620;27;20053;-58
2023/05/12 04:07:45;;;;;;;12.00;6.85;;;;;;;12.23;100.00;101363.25;5119645;27;20031;-56
2023/05/12 04:10:10;;;;;;;13.63;7.07;;;;;;;12.55;100.00;101367.44;5122592;27;20051;-59
2023/05/12 04:12:35;;;;;;;10.32;7.22;;;;;;;12.70;100.00;101354.13;5113450;27;20538;-58
2023/05/12 04:15:01;;;;;;;12.10;6.97;;;;;;;12.76;100.00;101360.56;5117467;27;20039;-60
2023/05/12 04:17:26;;;;;;;7.22;4.75;;;;;;;12.77;100.00;101356.88;5119801;27;20038;-60
2023/05/12 04:19:52;;;;;;;10.60;6.90;;;;;;;12.64;100.00;101366.31;5119264;27;20023;-57
2023/05/12 04:22:17;;;;;;;9.80;6.75;;;;;;;12.62;100.00;101363.03;5112824;27;20503;-59
2023/05/12 04:24:43;;;;;;;10.57;5.35;;;;;;;12.62;100.00;101364.84;5123612;27;20505;-58
2023/05/12 04:27:08;;;;;;;13.85;6.55;;;;;;;12.55;100.00;101366.59;5116312;27;20042;-57
2023/05/12 04:29:34;;;;;;;14.80;7.03;;;;;;;12.56;100.00;101368.25;5123207;27;20031;-60
2023/05/12 04:31:59;;;;;;;15.10;6.20;;;;;;;12.60;100.00;101366.88;5113379;27;20121;-58
2023/05/12 04:34:25;;;;;;;10.02;6.30;;;;;;;12.61;100.00;101369.34;5117011;27;20352;-63
2023/05/12 04:36:50;;;;;;;10.85;6.28;;;;;;;12.57;100.00;101367.22;5116986;27;20603;-60
2023/05/12 04:39:15;;;;;;;9.07;5.85;;;;;;;12.63;100.00;101370.00;5120304;27;20492;-61
2023/05/12 04:41:41;;;;;;;12.23;6.03;;;;;;;12.70;100.00;101362.13;5113358;27;20062;-58
2023/05/12 04:44:06;;;;;;;14.27;7.55;;;;;;;12.75;100.00;101370.38;5117321;27;20079;-57
2023/05/12 04:46:32;;;;;;;9.52;5.65;;;;;;;12.59;100.00;101373.19;5118850;27;20052;-58
2023/05/12 04:48:57;;;;;;;12.55;6.47;;;;;;;12.55;100.00;101372.75;5123594;27;20038;-60
2023/05/12 04:51:22;;;;;;;13.32;5.88;;;;;;;12.65;100.00;101377.81;5115204;27;20038;-65
2023/05/12 04:53:48;;;;;;;9.77;5.30;;;;;;;12.79;100.00;101374.31;5115645;27;20027;-58
2023/05/12 04:56:13;;;;;;;9.20;6.00;;;;;;;12.78;100.00;101380.66;5116705;27;20031;-62
2023/05/12 04:58:38;;;;;;;10.45;6.63;;;;;;;12.90;100.00;101380.19;5108337;27;20106;-58
2023/05/12 05:01:04;;;;;;;17.88;6.85;;;;;;;12.93;100.00;101377.97;5118093;27;20053;-60
2023/05/12 05:03:29;;;;;;;15.88;6.32;;;;;;;12.98;100.00;101380.91;5102754;27;20027;-56
2023/05/12 05:05:55;;;;;;;6.75;4.00;;;;;;;13.12;100.00;101387.25;5117787;27;20027;-56
2023/05/12 05:08:20;;;;;;;7.45;5.60;;;;;;;13.19;100.00;101390.81;5129866;27;20479;-59
2023/05/12 05:10:45;;;;;;;8.73;5.47;;;;;;;13.17;100.00;101392.00;5127198;27;20813;-58
2023/05/12 05:13:11;;;;;;;12.23;6.20;;;;;;;13.10;100.00;101400.72;5112161;27;20028;-63
2023/05/12 05:15:36;;;;;;;9.60;5.00;;;;;;;13.04;100.00;101403.31;5116816;27;20471;-57
2023/05/12 05:18:01;;;;;;;9.25;5.70;;;;;;;13.03;100.00;101401.66;5112198;27;20027;-59
2023/05/12 05:20:27;;;;;;;5.85;5.05;;;;;;;12.96;100.00;101404.25;5114312;27;20339;-57
2023/05/12 05:22:52;;;;;;;5.82;4.20;;;;;;;13.03;100.00;101412.28;5116676;27;20106;-58
2023/05/12 05:25:18;;;;;;;7.78;5.15;;;;;;;12.97;100.00;101399.72;5114799;27;20031;-57
2023/05/12 05:27:43;;;;;;;8.20;4.65;;;;;;;12.94;100.00;101408.09;5110809;27;20049;-58
2023/05/12 05:30:09;;;;;;;6.63;4.88;;;;;;;13.00;100.00;101408.16;5113468;27;20114;-62
2023/05/12 05:32:39;;;;;;;6.40;4.07;;;;;;;13.13;100.00;101410.19;5110473;27;20032;-55
2023/05/12 05:35:05;;;;;;;4.25;3.55;;;;;;;13.24;100.00;101414.19;5111066;27;20164;-59
2023/05/12 05:37:30;;;;;;;8.20;4.50;;;;;;;13.22;100.00;101417.06;5086628;28;20051;-58
2023/05/12 05:39:56;;;;;;;8.43;3.95;;;;;;;13.31;100.00;101423.97;5110985;27;20467;-58
2023/05/12 05:42:21;;;;;;;7.63;4.63;;;;;;;13.31;100.00;101423.97;5116768;27;20115;-55
2023/05/12 05:44:46;;;;;;;8.15;6.00;;;;;;;13.36;100.00;101425.25;5116851;27;20494;-58
2023/05/12 05:47:12;;;;;;;5.95;4.35;;;;;;;13.37;100.00;101424.22;5116299;27;20118;-59
2023/05/12 05:49:37;;;;;;;9.93;4.88;;;;;;;13.39;100.00;101433.69;5115780;27;20427;-60
2023/05/12 05:52:03;;;;;;;7.22;4.80;;;;;;;13.34;100.00;101433.41;5120355;27;20648;-66
2023/05/12 05:54:28;;;;;;;7.97;4.85;;;;;;;13.30;100.00;101429.50;5097580;27;20204;-57
2023/05/12 05:56:53;;;;;;;7.53;4.32;;;;;;;13.25;100.00;101430.00;5116010;27;20049;-64
2023/05/12 05:59:18;;;;;;;4.63;3.08;;;;;;;13.33;100.00;101437.09;5116230;27;20122;-56
2023/05/12 06:01:44;;;;;;;5.20;3.58;;;;;;;13.26;100.00;101437.00;5111983;27;20027;-57
2023/05/12 06:04:10;;;;;;;6.43;2.92;;;;;;;13.32;100.00;101443.47;5122495;27;20106;-60
2023/05/12 06:06:35;;;;;;;6.20;3.80;;;;;;;13.29;100.00;101438.47;5118287;27;20043;-55
2023/05/12 06:09:00;;;;;;;4.20;3.25;;;;;;;13.07;100.00;101446.38;5115586;27;20545;-55
2023/05/12 06:11:26;;;;;;;8.50;4.05;;;;;;;13.31;100.00;101455.91;5119193;27;20368;-63
2023/05/12 06:13:51;;;;;;;6.03;5.07;;;;;;;13.44;100.00;101446.44;5119160;27;20109;-55
2023/05/12 06:16:16;;;;;;;7.72;4.85;;;;;;;13.49;100.00;101458.19;5119918;27;20019;-58
2023/05/12 06:18:42;;;;;;;8.80;5.45;;;;;;;13.64;100.00;101455.50;5124335;27;20035;-55
2023/05/12 06:21:08;;;;;;;8.73;6.38;;;;;;;13.64;100.00;101460.84;5114014;27;20062;-57
2023/05/12 06:23:34;;;;;;;10.50;6.38;;;;;;;13.74;100.00;101458.69;5118619;27;20036;-54
2023/05/12 06:25:59;;;;;;;10.15;6.85;;;;;;;13.74;100.00;101457.88;5122862;27;20030;-55
2023/05/12 06:28:24;;;;;;;6.28;5.65;;;;;;;13.84;100.00;101458.41;5119199;27;20031;-57
2023/05/12 06:30:50;;;;;;;8.07;4.85;;;;;;;13.83;100.00;101462.06;5121597;27;20217;-60
2023/05/12 06:33:15;;;;;;;5.65;4.28;;;;;;;13.87;100.00;101465.19;5125727;27;20035;-54
2023/05/12 06:35:40;;;;;;;7.15;5.68;;;;;;;13.94;100.00;101464.25;5114382;27;20492;-55
2023/05/12 06:38:06;;;;;;;7.13;4.25;;;;;;;14.07;100.00;101471.56;5126737;27;20056;-56
2023/05/12 06:40:31;;;;;;;4.72;3.83;;;;;;;14.02;100.00;101470.47;5120412;27;20034;-57
2023/05/12 06:42:57;;;;;;;4.85;4.10;;;;;;;14.07;100.00;101468.91;5121390;27;20027;-54
2023/05/12 06:45:22;;;;;;;3.90;3.50;;;;;;;14.10;100.00;101473.84;5111378;27;20048;-56
2023/05/12 06:47:48;;;;;;;4.07;3.30;;;;;;;14.12;100.00;101473.66;5115990;27;20034;-58
2023/05/12 06:50:15;;;;;;;6.18;3.10;;;;;;;14.06;100.00;101477.91;5117285;27;20088;-55
2023/05/12 06:52:41;;;;;;;4.68;2.78;;;;;;;14.18;100.00;101479.06;5117297;27;20027;-55
2023/05/12 06:55:07;;;;;;;3.92;3.20;;;;;;;14.12;100.00;101487.81;5118988;27;20046;-59
2023/05/12 06:57:32;;;;;;;4.50;2.92;;;;;;;14.01;100.00;101482.16;5123629;27;20034;-61
2023/05/12 06:59:57;;;;;;;9.65;3.85;;;;;;;14.04;100.00;101487.09;5119272;27;20471;-59
2023/05/12 07:02:23;;;;;;;3.13;2.45;;;;;;;14.09;100.00;101480.19;5117608;27;20539;-58
2023/05/12 07:04:48;;;;;;;5.35;2.80;;;;;;;14.09;100.00;101479.34;5117742;27;20031;-56
2023/05/12 07:07:13;;;;;;;3.10;2.72;;;;;;;14.21;100.00;101490.38;5116556;27;20043;-60
2023/05/12 07:09:41;;;;;;;8.20;3.38;;;;;;;14.35;100.00;101489.47;5124598;27;20618;-61
2023/05/12 07:12:06;;;;;;;4.60;3.30;;;;;;;14.38;100.00;101491.78;5119562;27;20027;-56
2023/05/12 07:14:32;;;;;;;3.25;2.25;;;;;;;14.42;100.00;101487.69;5121010;27;20429;-51
2023/05/12 07:16:57;;;;;;;12.85;2.85;;;;;;;14.48;100.00;101486.94;5125139;27;20027;-51
2023/05/12 07:19:22;;;;;;;4.35;3.03;;;;;;;14.57;100.00;101483.13;5118978;27;20039;-53
2023/05/12 07:21:47;;;;;;;5.53;2.38;;;;;;;14.53;100.00;101491.69;5115254;27;20038;-56
2023/05/12 07:24:13;;;;;;;3.53;2.55;;;;;;;14.44;100.00;101491.00;5108923;27;20035;-51
2023/05/12 07:26:38;;;;;;;3.25;2.30;;;;;;;14.61;100.00;101497.75;5121703;27;20027;-51
2023/05/12 07:29:04;;;;;;;7.45;2.90;;;;;;;14.67;100.00;101487.31;5120119;27;20019;-53
2023/05/12 07:31:30;;;;;;;4.63;2.50;;;;;;;14.71;100.00;101488.56;5117152;27;20108;-51
2023/05/12 07:33:55;;;;;;;6.22;2.92;;;;;;;14.72;100.00;101487.56;5114732;27;20040;-53
2023/05/12 07:36:20;;;;;;;6.20;1.90;;;;;;;14.84;100.00;101488.66;5118766;27;20380;-50
2023/05/12 07:38:46;;;;;;;3.95;2.35;;;;;;;15.11;100.00;101475.50;5118353;27;20070;-52
2023/05/12 07:41:11;;;;;;;4.82;2.10;;;;;;;15.35;100.00;101482.19;5111613;27;20539;-50
2023/05/12 07:43:37;;;;;;;2.97;2.75;;;;;;;15.29;100.00;101483.00;5120144;27;20118;-54
2023/05/12 07:46:02;;;;;;;6.53;1.88;;;;;;;15.00;100.00;101492.91;5117646;27;20037;-58
2023/05/12 07:48:28;;;;;;;3.05;1.83;;;;;;;15.10;100.00;101484.50;5112651;27;20135;-52
2023/05/12 07:50:54;;;;;;;2.03;1.58;;;;;;;15.31;100.00;101491.63;5118420;27;20057;-51
2023/05/12 07:53:19;;;;;;;4.43;1.98;;;;;;;15.32;100.00;101494.09;5117194;27;20038;-52
2023/05/12 07:55:45;;;;;;;1.73;1.65;;;;;;;15.43;100.00;101498.88;5116055;27;20031;-49
2023/05/12 07:58:11;;;;;;;3.22;2.28;;;;;;;15.10;100.00;101498.72;5121425;27;20019;-51
2023/05/12 08:00:36;;;;;;;5.32;2.22;;;;;;;15.14;100.00;101493.78;5114377;27;20023;-54
2023/05/12 08:03:02;;;;;;;5.70;1.85;;;;;;;15.11;100.00;101502.22;5116421;27;20038;-49
2023/05/12 08:05:27;;;;;;;2.55;1.85;;;;;;;15.30;100.00;101488.13;5116952;27;20401;-52
2023/05/12 08:07:53;;;;;;;4.70;2.03;;;;;;;15.39;100.00;101492.28;5114725;27;20391;-51
2023/05/12 08:10:18;;;;;;;4.05;2.50;;;;;;;15.34;100.00;101492.06;5116657;27;20039;-62
2023/05/12 08:12:44;;;;;;;6.35;1.98;;;;;;;15.42;100.00;101494.56;5118031;27;20141;-50
2023/05/12 08:15:09;;;;;;;3.65;1.67;;;;;;;15.37;100.00;101488.16;5117783;27;20061;-65
2023/05/12 08:17:35;;;;;;;4.28;1.92;;;;;;;15.31;100.00;101495.13;5109474;27;20379;-53
2023/05/12 08:20:03;;;;;;;18.23;2.00;;;;;;;15.51;100.00;101494.41;5117984;27;20027;-48
2023/05/12 08:22:28;;;;;;;3.55;1.73;;;;;;;15.55;100.00;101499.16;5113272;27;20022;-52
2023/05/12 08:24:54;;;;;;;4.30;1.40;;;;;;;15.59;100.00;101494.22;5122630;27;20030;-51
2023/05/12 08:27:19;;;;;;;2.63;1.65;;;;;;;15.69;100.00;101500.91;5118989;27;20379;-51
2023/05/12 08:29:45;;;;;;;2.88;2.60;;;;;;;15.79;100.00;101505.03;5118816;27;20540;-49
2023/05/12 08:32:10;;;;;;;2.60;2.22;;;;;;;15.55;100.00;101499.16;5117141;27;20020;-52
2023/05/12 08:34:36;;;;;;;3.65;2.20;;;;;;;15.62;100.00;101505.34;5116738;27;20431;-53
2023/05/12 08:37:01;;;;;;;3.53;2.33;;;;;;;15.74;100.00;101505.63;5120129;27;20450;-53
2023/05/12 08:39:29;;;;;;;3.35;2.47;;;;;;;15.66;100.00;101513.78;5117404;27;20032;-65
2023/05/12 08:42:19;;;;;;;3.97;2.33;;;;;;;15.82;100.00;101505.44;5105036;27;20026;-64
2023/05/12 08:44:45;;;;;;;2.50;1.90;;;;;;;15.64;100.00;101518.50;5122407;27;20137;-51
2023/05/12 08:47:11;;;;;;;3.25;2.03;;;;;;;15.77;100.00;101528.47;5119429;27;20033;-58
2023/05/12 08:49:39;;;;;;;5.47;2.15;;;;;;;15.43;100.00;101525.59;5117814;27;20027;-59
2023/05/12 08:52:06;;;;;;;2.53;1.98;;;;;;;15.33;100.00;101537.66;5117303;27;20163;-57
2023/05/12 08:54:32;;;;;;;3.95;3.00;;;;;;;15.31;100.00;101535.22;5116415;27;20114;-55
2023/05/12 08:56:58;;;;;;;4.28;1.95;;;;;;;15.73;100.00;101532.56;5117480;27;20110;-54
2023/05/12 08:59:24;;;;;;;2.03;1.83;;;;;;;15.81;100.00;101527.06;5121469;27;20513;-48
2023/05/12 09:01:49;;;;;;;4.18;1.95;;;;;;;15.82;100.00;101526.84;5115152;27;20031;-54
2023/05/12 09:04:16;;;;;;;2.42;1.58;;;;;;;15.97;100.00;101529.34;5121763;27;20101;-50
2023/05/12 09:06:42;;;;;;;2.33;1.55;;;;;;;15.83;100.00;101523.16;5117835;27;20031;-56
2023/05/12 09:09:08;;;;;;;4.95;1.42;;;;;;;16.08;100.00;101526.13;5121802;27;20030;-55
2023/05/12 09:11:33;;;;;;;1.35;1.10;;;;;;;16.20;100.00;101528.19;5114096;27;20066;-53
2023/05/12 09:14:05;;;;;;;1.60;1.10;;;;;;;16.17;100.00;101536.63;5117533;27;20689;-53
2023/05/12 09:16:34;;;;;;;2.35;1.20;;;;;;;16.23;100.00;101536.63;5117756;27;20080;-53
2023/05/12 09:19:00;;;;;;;2.60;1.02;;;;;;;16.27;100.00;101540.56;5119738;27;20122;-51
2023/05/12 09:21:27;;;;;;;2.05;1.00;;;;;;;16.26;100.00;101528.22;5103385;28;20553;-53
2023/05/12 09:24:06;;;;;;;1.75;0.98;;;;;;;16.19;100.00;101537.25;5116803;27;20424;-50
2023/05/12 09:26:52;;;;;;;3.83;0.95;;;;;;;16.09;100.00;101540.31;5122635;27;20880;-67
2023/05/12 09:29:19;;;;;;;2.38;1.48;;;;;;;16.07;100.00;101537.81;5116029;27;20035;-51
2023/05/12 09:31:52;;;;;;;1.15;0.57;;;;;;;16.23;100.00;101544.66;5120913;27;20080;-53
2023/05/12 09:34:19;;;;;;;0.85;0.77;;;;;;;16.23;100.00;101541.97;5118087;27;20043;-54
2023/05/12 09:36:53;;;;;;;2.15;0.35;;;;;;;16.32;100.00;101543.44;5118515;27;20035;-53
2023/05/12 09:39:18;;;;;;;1.65;0.40;;;;;;;16.45;100.00;101539.16;5112680;27;20035;-54
2023/05/12 09:41:44;;;;;;;4.85;0.70;;;;;;;16.84;100.00;101540.22;5101761;27;20027;-55
2023/05/12 09:44:13;;;;;;;4.20;0.70;;;;;;;17.02;100.00;101550.31;5123127;27;20373;-65
2023/05/12 09:46:41;;;;;;;16.38;1.55;;;;;;;17.08;100.00;101534.22;5120911;27;20047;-52
2023/05/12 09:49:06;;;;;;;3.08;0.47;;;;;;;16.86;100.00;101527.47;5123629;27;20161;-53
2023/05/12 09:51:32;;;;;;;1.38;0.40;;;;;;;17.32;100.00;101547.97;5107089;27;20121;-51
2023/05/12 09:53:58;;;;;;;2.20;0.10;;;;;;;17.75;100.00;101528.66;5119241;27;20164;-51
2023/05/12 09:56:28;;;;;;;0.52;0.20;;;;;;;17.05;100.00;101539.19;5124313;27;20035;-54
2023/05/12 09:58:55;;;;;;;0.93;0.13;;;;;;;16.74;100.00;101541.41;5122228;27;20046;-49
2023/05/12 10:01:21;;;;;;;2.53;0.20;;;;;;;16.62;100.00;101548.41;5113554;27;20106;-54
2023/05/12 10:03:52;;;;;;;1.63;0.28;;;;;;;16.85;100.00;101541.88;5120055;27;20027;-48
2023/05/12 10:06:31;;;;;;;1.38;0.20;;;;;;;17.68;100.00;101539.41;5124446;27;20027;-50
2023/05/12 10:09:07;;;;;;;1.35;0.05;;;;;;;18.13;100.00;101544.81;5120805;27;20031;-51
2023/05/12 10:11:33;;;;;;;0.73;0.20;;;;;;;18.11;100.00;101529.97;5120105;27;20063;-53
2023/05/12 10:13:59;;;;;;;1.65;0.45;;;;;;;17.84;100.00;101535.47;5120280;27;20122;-51
2023/05/12 10:16:28;;;;;;;1.73;0.05;;;;;;;17.79;100.00;101529.91;5128303;27;20033;-51
2023/05/12 10:18:55;;;;;;;0.70;0.10;;;;;;;17.62;100.00;101533.03;5117728;27;20043;-53
2023/05/12 10:21:22;;;;;;;3.33;0.35;;;;;;;17.53;100.00;101528.97;5125742;27;20081;-48
2023/05/12 10:23:48;;;;;;;0.75;0.25;;;;;;;17.81;100.00;101530.53;5118259;27;20540;-48
2023/05/12 10:26:15;;;;;;;0.10;0.10;;;;;;;18.24;100.00;101529.88;5121214;27;20395;-47
2023/05/12 10:28:41;;;;;;;5.15;0.20;;;;;;;18.21;100.00;101524.94;5126222;27;20031;-54
2023/05/12 10:31:08;;;;;;;1.15;0.15;;;;;;;18.32;100.00;101521.56;5124252;27;20491;-49
2023/05/12 10:33:34;;;;;;;1.75;0.03;;;;;;;18.38;100.00;101517.19;5115358;27;20035;-50
2023/05/12 10:35:59;;;;;;;2.50;0.20;;;;;;;18.65;100.00;101520.50;5122956;27;20031;-50
2023/05/12 10:38:25;;;;;;;2.53;0.20;;;;;;;18.72;100.00;101523.97;5116103;27;20027;-51
2023/05/12 10:40:58;;;;;;;3.10;0.70;;;;;;;18.41;100.00;101517.59;5119800;27;20038;-53
2023/05/12 10:43:28;;;;;;;1.90;0.25;;;;;;;18.04;100.00;101520.09;5117948;27;20063;-52
2023/05/12 10:46:12;;;;;;;3.70;0.10;;;;;;;18.21;100.00;101530.31;5113080;27;20067;-53
2023/05/12 10:48:52;;;;;;;2.13;0.28;;;;;;;17.84;100.00;101522.88;5122081;27;20031;-53
2023/05/12 10:51:22;;;;;;;1.08;0.50;;;;;;;17.35;100.00;101526.97;5118123;27;20050;-52
2023/05/12 10:53:55;;;;;;;0.85;0.17;;;;;;;17.18;100.00;101523.91;5131328;27;20293;-47
2023/05/12 10:56:23;;;;;;;0.77;0.30;;;;;;;17.27;100.00;101520.97;5118472;27;20039;-51
2023/05/12 10:59:27;;;;;;;2.63;0.15;;;;;;;17.03;100.00;101522.47;5133580;27;20031;-51
2023/05/12 11:02:00;;;;;;;0.80;0.52;;;;;;;16.64;100.00;101535.66;5118411;27;20039;-49
2023/05/12 11:04:46;;;;;;;1.70;0.60;;;;;;;16.70;100.00;101536.69;5112227;27;20122;-53
2023/05/12 11:07:12;;;;;;;3.05;0.30;;;;;;;16.45;100.00;101542.66;5120131;27;20031;-48
2023/05/12 11:09:44;;;;;;;2.22;0.45;;;;;;;16.43;100.00;101530.50;5117582;27;20042;-50
2023/05/12 11:12:10;;;;;;;;;;;;;;;16.67;100.00;101529.06;5119592;27;20487;-54
2023/05/12 11:14:37;;;;;;;0.85;0.10;;;;;;;16.69;100.00;101527.81;5121112;27;19919;-51